Time;durP1;ratioP1;P1;durP2;ratioP2;P2;SDS_P1;SDS_P2;PMS_P1;PMS_P2;Temp;Humidity;BMP_temperature;BMP_pressure;BME280_temperature;BME280_humidity;BME280_pressure;Samples;Min_cycle;Max_cycle;Signal;HPM_P1;HPM_P2
2022/10/14 00:01:09;;;;;;;60.53;31.77;;;13.20;99.90;;;;;;5048292;28;20037;-64
2022/10/14 00:03:36;;;;;;;56.72;30.00;;;13.10;99.90;;;;;;5050080;28;20048;-66
2022/10/14 00:06:10;;;;;;;63.13;30.98;;;13.20;99.90;;;;;;5050529;28;20067;-65
2022/10/14 00:08:35;;;;;;;64.20;30.52;;;13.10;99.90;;;;;;5042146;28;20047;-64
2022/10/14 00:11:07;;;;;;;60.20;30.55;;;13.10;99.90;;;;;;5035652;28;20041;-65
2022/10/14 00:13:33;;;;;;;67.13;30.25;;;13.10;99.90;;;;;;5050310;28;20236;-65
2022/10/14 00:16:00;;;;;;;61.97;30.58;;;13.00;99.90;;;;;;5025027;28;20487;-65
2022/10/14 00:18:25;;;;;;;55.92;29.17;;;13.00;99.90;;;;;;5041159;28;20075;-65
2022/10/14 00:20:55;;;;;;;64.07;30.13;;;13.00;99.90;;;;;;5048790;28;20049;-66
2022/10/14 00:23:21;;;;;;;60.55;28.10;;;12.90;99.90;;;;;;5042339;28;20045;-65
2022/10/14 00:25:47;;;;;;;58.30;28.58;;;12.90;99.90;;;;;;5021337;28;20053;-65
2022/10/14 00:28:12;;;;;;;55.63;28.17;;;12.80;99.90;;;;;;5030877;28;20052;-65
2022/10/14 00:30:38;;;;;;;57.78;28.67;;;12.70;99.90;;;;;;5050092;28;20044;-65
2022/10/14 00:33:03;;;;;;;55.85;28.33;;;12.70;99.90;;;;;;5038301;28;20045;-64
2022/10/14 00:35:31;;;;;;;60.28;28.23;;;12.60;99.90;;;;;;5024107;28;20102;-65
2022/10/14 00:37:59;;;;;;;61.95;26.83;;;12.50;99.90;;;;;;5049458;28;20040;-64
2022/10/14 00:40:25;;;;;;;428.98;30.75;;;12.40;99.90;;;;;;5046022;28;20036;-64
2022/10/14 00:42:51;;;;;;;254.70;29.67;;;12.30;99.90;;;;;;5045070;28;20049;-64
2022/10/14 00:45:22;;;;;;;471.75;31.58;;;12.20;99.90;;;;;;5049613;28;20033;-65
2022/10/14 00:47:50;;;;;;;296.15;29.92;;;12.20;99.90;;;;;;5049765;28;20126;-65
2022/10/14 00:50:16;;;;;;;236.82;28.33;;;12.10;99.90;;;;;;5042086;28;20514;-66
2022/10/14 00:52:43;;;;;;;335.08;27.95;;;12.10;99.90;;;;;;5048837;28;20025;-65
2022/10/14 00:55:16;;;;;;;76.88;25.38;;;12.00;99.90;;;;;;5049983;28;20065;-65
2022/10/14 00:57:42;;;;;;;83.78;26.83;;;11.90;99.90;;;;;;5045025;28;20040;-64
2022/10/14 01:00:14;;;;;;;127.50;25.02;;;12.00;99.90;;;;;;5049076;28;20041;-66
2022/10/14 01:02:40;;;;;;;123.95;24.30;;;12.00;99.90;;;;;;5049200;28;20134;-65
2022/10/14 01:05:08;;;;;;;78.25;22.55;;;12.00;99.90;;;;;;5047710;28;20116;-66
2022/10/14 01:07:58;;;;;;;103.55;22.25;;;12.00;99.90;;;;;;5027644;28;20045;-65
2022/10/14 01:10:26;;;;;;;137.13;20.55;;;12.00;99.90;;;;;;5039745;28;20037;-65
2022/10/14 01:13:14;;;;;;;197.10;20.02;;;11.90;99.90;;;;;;5031437;28;20048;-64
2022/10/14 01:16:02;;;;;;;257.83;21.52;;;11.90;99.90;;;;;;5038284;28;20143;-65
2022/10/14 01:18:43;;;;;;;279.63;22.65;;;11.80;99.90;;;;;;5024401;28;20407;-64
2022/10/14 01:21:20;;;;;;;241.85;22.02;;;11.80;99.90;;;;;;5050708;28;20071;-64
2022/10/14 01:23:52;;;;;;;218.82;21.15;;;11.80;99.90;;;;;;5025440;28;20048;-64
2022/10/14 01:26:36;;;;;;;264.70;21.20;;;11.80;99.90;;;;;;5044657;28;20119;-65
2022/10/14 01:29:10;;;;;;;140.45;17.73;;;11.80;99.90;;;;;;5051785;28;20037;-65
2022/10/14 01:31:39;;;;;;;149.70;19.00;;;11.80;99.90;;;;;;5048421;28;20091;-65
2022/10/14 01:34:09;;;;;;;129.98;17.38;;;11.80;99.90;;;;;;5035883;28;20037;-65
2022/10/14 01:36:44;;;;;;;183.70;19.13;;;11.80;99.90;;;;;;5034765;28;20044;-65
2022/10/14 01:39:26;;;;;;;161.27;17.75;;;11.80;99.90;;;;;;5048402;28;20029;-64
2022/10/14 01:42:00;;;;;;;169.57;19.23;;;11.70;99.90;;;;;;5050092;28;20186;-64
2022/10/14 01:44:29;;;;;;;155.13;19.20;;;11.80;99.90;;;;;;5034910;28;20114;-64
2022/10/14 01:46:55;;;;;;;129.30;18.65;;;11.80;99.90;;;;;;5051373;28;20037;-64
2022/10/14 01:49:31;;;;;;;133.70;16.02;;;11.80;99.90;;;;;;5045945;28;20099;-65
2022/10/14 01:52:09;;;;;;;108.25;16.77;;;11.80;99.90;;;;;;5045780;28;20043;-64
2022/10/14 01:54:40;;;;;;;121.07;17.15;;;11.80;99.90;;;;;;5035055;28;20071;-64
2022/10/14 01:57:12;;;;;;;159.70;17.13;;;11.80;99.90;;;;;;5030303;28;20045;-64
2022/10/14 01:59:39;;;;;;;125.72;16.60;;;11.80;99.90;;;;;;5035916;28;20422;-64
2022/10/14 02:02:04;;;;;;;148.35;17.48;;;11.80;99.90;;;;;;5051086;28;20045;-64
2022/10/14 02:04:30;;;;;;;201.75;18.15;;;11.80;99.90;;;;;;5028179;28;20136;-65
2022/10/14 02:07:06;;;;;;;192.65;18.95;;;11.80;99.90;;;;;;5051050;28;20029;-64
2022/10/14 02:09:54;;;;;;;186.55;18.00;;;11.80;99.90;;;;;;5051897;28;20132;-65
2022/10/14 02:12:49;;;;;;;195.75;18.27;;;11.80;99.90;;;;;;5046401;28;20087;-65
2022/10/14 02:15:27;;;;;;;194.80;17.48;;;11.80;99.90;;;;;;5041224;28;20044;-65
2022/10/14 02:18:09;;;;;;;174.45;17.00;;;11.80;99.90;;;;;;5051800;28;20069;-65
2022/10/14 02:20:45;;;;;;;183.27;17.08;;;11.90;99.90;;;;;;5052241;28;20060;-64
2022/10/14 02:23:19;;;;;;;169.32;16.67;;;11.80;99.90;;;;;;5041969;28;20465;-65
2022/10/14 02:25:47;;;;;;;254.23;18.85;;;11.80;99.90;;;;;;5049709;28;20041;-65
2022/10/14 02:28:17;;;;;;;228.40;18.83;;;11.80;99.90;;;;;;5051831;28;20044;-66
2022/10/14 02:30:48;;;;;;;305.15;19.83;;;11.80;99.90;;;;;;5046045;28;20676;-65
2022/10/14 02:33:14;;;;;;;;;;;11.80;99.90;;;;;;5049168;28;20068;-64
2022/10/14 02:35:42;;;;;;;148.52;16.50;;;11.80;99.90;;;;;;5051648;28;19997;-64
2022/10/14 02:38:08;;;;;;;205.20;19.50;;;11.80;99.90;;;;;;5044549;28;20080;-64
2022/10/14 02:40:44;;;;;;;175.18;18.83;;;11.70;99.90;;;;;;5051368;28;20449;-64
2022/10/14 02:43:10;;;;;;;295.90;19.80;;;11.80;99.90;;;;;;5051245;28;20498;-64
2022/10/14 02:45:37;;;;;;;300.15;21.45;;;11.70;99.90;;;;;;5046092;28;20040;-65
2022/10/14 02:48:03;;;;;;;137.52;20.38;;;11.70;99.90;;;;;;5048942;28;20051;-64
2022/10/14 02:50:29;;;;;;;120.15;21.63;;;11.80;99.90;;;;;;5051189;28;20033;-65
2022/10/14 02:52:54;;;;;;;154.10;24.77;;;11.70;99.90;;;;;;5030352;28;20087;-63
2022/10/14 02:55:21;;;;;;;137.02;25.25;;;11.80;99.90;;;;;;5043454;28;20067;-64
2022/10/14 02:57:46;;;;;;;153.43;26.83;;;11.80;99.90;;;;;;5033077;28;20049;-64
2022/10/14 03:00:12;;;;;;;137.23;26.85;;;11.80;99.90;;;;;;5050849;28;20490;-64
2022/10/14 03:02:38;;;;;;;116.55;26.35;;;11.80;99.90;;;;;;5046416;28;20045;-66
2022/10/14 03:05:04;;;;;;;136.65;28.45;;;11.80;99.90;;;;;;5050486;28;20397;-65
2022/10/14 03:07:29;;;;;;;106.93;27.02;;;11.80;99.90;;;;;;5032991;28;20037;-65
2022/10/14 03:09:55;;;;;;;123.95;27.45;;;11.80;99.90;;;;;;5051339;28;20029;-64
2022/10/14 03:12:21;;;;;;;126.20;27.98;;;11.80;99.90;;;;;;5035515;28;20531;-64
2022/10/14 03:14:46;;;;;;;125.68;27.00;;;11.80;99.90;;;;;;5028823;28;20043;-64
2022/10/14 03:17:12;;;;;;;103.15;26.27;;;11.90;99.90;;;;;;5049329;28;20051;-65
2022/10/14 03:19:37;;;;;;;114.53;26.50;;;11.80;99.90;;;;;;5042134;28;20044;-65
2022/10/14 03:22:03;;;;;;;101.57;25.77;;;11.90;99.90;;;;;;5049432;28;20120;-65
2022/10/14 03:24:29;;;;;;;122.72;28.30;;;11.90;99.90;;;;;;5029506;28;20041;-65
2022/10/14 03:26:54;;;;;;;108.82;25.90;;;11.90;99.90;;;;;;5031098;28;20402;-65
2022/10/14 03:29:20;;;;;;;97.32;24.88;;;11.90;99.90;;;;;;5045947;28;20136;-64
2022/10/14 03:31:45;;;;;;;110.80;25.40;;;11.90;99.90;;;;;;5031156;28;20403;-64
2022/10/14 03:34:11;;;;;;;92.35;24.10;;;11.90;99.90;;;;;;5050848;28;20098;-65
2022/10/14 03:36:36;;;;;;;88.13;23.35;;;11.90;99.90;;;;;;5027311;28;20521;-65
2022/10/14 03:39:02;;;;;;;92.05;21.13;;;11.90;99.90;;;;;;5032320;28;20048;-64
2022/10/14 03:41:28;;;;;;;92.78;22.42;;;11.90;99.90;;;;;;5050187;28;20318;-64
2022/10/14 03:43:54;;;;;;;81.05;19.80;;;11.90;99.90;;;;;;5043000;28;20719;-65
2022/10/14 03:46:20;;;;;;;87.55;20.58;;;12.00;99.90;;;;;;5041286;28;20034;-65
2022/10/14 03:48:45;;;;;;;76.00;19.30;;;11.90;99.90;;;;;;5048545;28;20059;-64
2022/10/14 03:51:11;;;;;;;77.05;18.63;;;11.90;99.90;;;;;;5049960;28;20072;-65
2022/10/14 03:53:37;;;;;;;68.75;17.92;;;11.90;99.90;;;;;;5028183;28;20546;-65
2022/10/14 03:56:03;;;;;;;73.82;18.17;;;11.90;99.90;;;;;;5032101;28;20039;-66
2022/10/14 03:58:28;;;;;;;76.88;18.00;;;11.90;99.90;;;;;;5050311;28;20071;-65
2022/10/14 04:00:54;;;;;;;105.22;20.45;;;11.90;99.90;;;;;;5028251;28;20041;-65
2022/10/14 04:03:19;;;;;;;100.55;22.30;;;11.90;99.90;;;;;;5043612;28;20041;-65
2022/10/14 04:05:45;;;;;;;110.75;23.88;;;11.90;99.90;;;;;;5049898;28;20045;-65
2022/10/14 04:08:10;;;;;;;104.57;24.30;;;11.90;99.90;;;;;;5050313;28;20120;-65
2022/10/14 04:10:36;;;;;;;97.63;22.73;;;11.90;99.90;;;;;;5037171;28;20065;-65
2022/10/14 04:13:02;;;;;;;107.07;23.92;;;11.80;99.90;;;;;;5028119;28;20147;-65
2022/10/14 04:15:27;;;;;;;97.13;23.25;;;11.90;99.90;;;;;;5049420;28;20086;-65
2022/10/14 04:17:54;;;;;;;116.35;26.00;;;11.80;99.90;;;;;;5029203;28;20404;-65
2022/10/14 04:20:20;;;;;;;117.30;24.60;;;11.80;99.90;;;;;;5046529;28;20052;-65
2022/10/14 04:22:45;;;;;;;110.18;24.05;;;11.80;99.90;;;;;;5049615;28;20422;-65
2022/10/14 04:25:11;;;;;;;100.78;24.45;;;11.80;99.90;;;;;;5047249;28;20045;-65
2022/10/14 04:27:37;;;;;;;109.70;24.83;;;11.80;99.90;;;;;;5029494;28;20041;-64
2022/10/14 04:30:04;;;;;;;109.80;25.00;;;11.80;99.90;;;;;;5048199;28;20045;-64
2022/10/14 04:32:29;;;;;;;108.60;24.90;;;11.80;99.90;;;;;;5050031;28;20044;-64
2022/10/14 04:34:55;;;;;;;103.32;25.73;;;11.80;99.90;;;;;;5035070;28;20037;-65
2022/10/14 04:37:20;;;;;;;114.28;25.02;;;11.80;99.90;;;;;;5043577;28;20033;-65
2022/10/14 04:39:46;;;;;;;121.32;24.00;;;11.70;99.90;;;;;;5031886;28;20072;-66
2022/10/14 04:42:12;;;;;;;114.63;24.13;;;11.70;99.90;;;;;;5035571;28;20114;-63
2022/10/14 04:44:37;;;;;;;119.88;25.83;;;11.70;99.90;;;;;;5040915;28;20038;-65
2022/10/14 04:47:03;;;;;;;128.57;25.33;;;11.80;99.90;;;;;;5046236;28;20124;-65
2022/10/14 04:49:29;;;;;;;93.15;24.77;;;11.70;99.90;;;;;;5048009;28;20396;-65
2022/10/14 04:51:55;;;;;;;98.28;24.50;;;11.80;99.90;;;;;;5048433;28;20041;-64
2022/10/14 04:54:20;;;;;;;116.22;26.17;;;11.80;99.90;;;;;;5049415;28;20599;-64
2022/10/14 04:56:46;;;;;;;117.00;25.98;;;11.80;99.90;;;;;;5052326;28;20128;-65
2022/10/14 04:59:12;;;;;;;121.82;26.27;;;11.90;99.90;;;;;;5031567;28;20047;-65
2022/10/14 05:01:38;;;;;;;123.38;26.27;;;11.90;99.90;;;;;;5032235;28;20040;-65
2022/10/14 05:04:04;;;;;;;120.05;26.48;;;11.90;99.90;;;;;;5053374;28;20100;-66
2022/10/14 05:06:30;;;;;;;120.50;25.73;;;11.90;99.90;;;;;;5053718;28;20480;-64
2022/10/14 05:08:55;;;;;;;90.90;23.63;;;11.80;99.90;;;;;;5044460;28;20059;-65
2022/10/14 05:11:21;;;;;;;106.93;24.67;;;11.70;99.90;;;;;;5042073;28;20033;-65
2022/10/14 05:13:47;;;;;;;89.82;24.00;;;11.70;99.90;;;;;;5051588;28;20057;-66
2022/10/14 05:16:13;;;;;;;104.38;24.98;;;11.60;99.90;;;;;;5047791;28;20041;-65
2022/10/14 05:18:38;;;;;;;111.65;25.67;;;11.60;99.90;;;;;;5043660;28;20043;-64
2022/10/14 05:21:04;;;;;;;88.30;25.48;;;11.60;99.90;;;;;;5051208;28;20041;-64
2022/10/14 05:23:30;;;;;;;88.40;25.20;;;11.60;99.90;;;;;;5052885;28;20124;-64
2022/10/14 05:25:55;;;;;;;103.75;25.95;;;11.60;99.90;;;;;;5047411;28;20029;-65
2022/10/14 05:28:21;;;;;;;114.32;25.80;;;11.60;99.90;;;;;;5047701;28;20459;-64
2022/10/14 05:30:47;;;;;;;92.15;25.13;;;11.60;99.90;;;;;;5051386;28;20578;-64
2022/10/14 05:33:12;;;;;;;75.47;23.55;;;11.60;99.90;;;;;;5040842;28;20494;-66
2022/10/14 05:35:38;;;;;;;93.53;23.63;;;11.70;99.90;;;;;;5038937;28;20041;-64
2022/10/14 05:38:04;;;;;;;84.85;23.88;;;11.60;99.90;;;;;;5050944;28;20037;-65
2022/10/14 05:40:29;;;;;;;76.28;22.23;;;11.60;99.90;;;;;;5049811;28;20041;-66
2022/10/14 05:42:55;;;;;;;63.97;19.88;;;11.60;99.90;;;;;;5050681;28;20044;-65
2022/10/14 05:45:20;;;;;;;64.05;19.55;;;11.60;99.90;;;;;;5052644;28;20136;-64
2022/10/14 05:47:46;;;;;;;63.00;19.58;;;11.50;99.90;;;;;;5052582;28;20041;-65
2022/10/14 05:50:13;;;;;;;57.13;19.20;;;11.40;99.90;;;;;;5044010;28;20040;-65
2022/10/14 05:52:39;;;;;;;53.30;18.35;;;11.40;99.90;;;;;;5051725;28;20037;-65
2022/10/14 05:55:06;;;;;;;58.80;18.00;;;11.40;99.90;;;;;;5051227;28;20041;-65
2022/10/14 05:57:32;;;;;;;67.07;18.35;;;11.30;99.90;;;;;;5029478;28;20047;-65
2022/10/14 05:59:58;;;;;;;49.97;16.80;;;11.30;99.90;;;;;;5040055;28;20487;-65
2022/10/14 06:02:24;;;;;;;52.75;17.17;;;11.30;99.90;;;;;;5032980;28;20525;-65
2022/10/14 06:04:50;;;;;;;49.20;16.73;;;11.30;99.90;;;;;;5052341;28;20036;-65
2022/10/14 06:07:16;;;;;;;63.22;18.05;;;11.20;99.90;;;;;;5018853;28;20036;-64
2022/10/14 06:09:41;;;;;;;54.47;16.95;;;11.30;99.90;;;;;;5045452;28;20037;-65
2022/10/14 06:12:08;;;;;;;47.60;16.73;;;11.30;99.90;;;;;;5032632;28;20103;-65
2022/10/14 06:14:34;;;;;;;46.92;15.60;;;11.20;99.90;;;;;;5048372;28;20477;-65
2022/10/14 06:16:59;;;;;;;47.70;15.93;;;11.20;99.90;;;;;;5051491;28;20037;-65
2022/10/14 06:19:25;;;;;;;42.58;15.45;;;11.20;99.90;;;;;;5052248;28;20029;-64
2022/10/14 06:21:50;;;;;;;44.80;15.98;;;11.20;99.90;;;;;;5045356;28;20086;-62
2022/10/14 06:24:16;;;;;;;48.13;15.90;;;11.30;99.90;;;;;;5015785;28;20491;-64
2022/10/14 06:26:42;;;;;;;47.00;16.85;;;11.30;99.90;;;;;;5044238;28;20045;-63
2022/10/14 06:29:07;;;;;;;46.90;17.08;;;11.40;99.90;;;;;;5047020;28;20040;-64
2022/10/14 06:31:33;;;;;;;51.28;17.55;;;11.40;99.90;;;;;;5051687;28;20040;-65
2022/10/14 06:33:59;;;;;;;55.72;16.98;;;11.50;99.90;;;;;;5032709;28;20072;-63
2022/10/14 06:36:25;;;;;;;44.95;17.13;;;11.50;99.90;;;;;;5041816;28;20127;-64
2022/10/14 06:38:51;;;;;;;54.30;18.10;;;11.50;99.90;;;;;;5045727;28;20177;-65
2022/10/14 06:41:16;;;;;;;45.35;16.20;;;11.60;99.90;;;;;;5047398;28;20045;-65
2022/10/14 06:43:42;;;;;;;46.58;18.05;;;11.60;99.90;;;;;;5051600;28;20491;-65
2022/10/14 06:46:08;;;;;;;53.25;17.75;;;11.70;99.90;;;;;;5051405;28;20167;-64
2022/10/14 06:48:33;;;;;;;47.72;16.50;;;11.70;99.90;;;;;;5022313;28;20070;-64
2022/10/14 06:51:00;;;;;;;45.75;16.95;;;11.80;99.90;;;;;;5048975;28;20091;-63
2022/10/14 06:53:27;;;;;;;57.15;18.80;;;11.80;99.90;;;;;;5035438;28;20167;-64
2022/10/14 06:56:02;;;;;;;54.83;18.52;;;11.90;99.90;;;;;;5041909;28;20398;-65
2022/10/14 06:58:28;;;;;;;52.05;18.10;;;12.00;99.90;;;;;;5045864;28;20495;-64
2022/10/14 07:00:54;;;;;;;48.35;18.20;;;12.00;99.90;;;;;;5050568;28;20052;-65
2022/10/14 07:03:19;;;;;;;48.67;19.25;;;12.00;99.90;;;;;;5039774;28;20037;-65
2022/10/14 07:05:45;;;;;;;49.55;18.50;;;12.10;99.90;;;;;;5029325;28;20049;-64
2022/10/14 07:08:10;;;;;;;50.97;19.00;;;12.20;99.90;;;;;;5022342;28;20044;-64
2022/10/14 07:10:36;;;;;;;53.15;18.42;;;12.20;99.90;;;;;;5050807;28;20033;-65
2022/10/14 07:13:02;;;;;;;55.22;19.52;;;12.20;99.90;;;;;;5018734;28;20707;-64
2022/10/14 07:15:27;;;;;;;56.70;20.13;;;12.30;99.90;;;;;;5015648;28;20037;-64
2022/10/14 07:17:53;;;;;;;51.95;18.70;;;12.40;99.90;;;;;;5028835;28;20080;-65
2022/10/14 07:20:19;;;;;;;51.40;19.85;;;12.40;99.90;;;;;;5050479;28;20406;-65
2022/10/14 07:22:44;;;;;;;46.38;19.10;;;12.40;99.90;;;;;;5045297;28;20495;-65
2022/10/14 07:25:10;;;;;;;47.05;19.08;;;12.40;99.90;;;;;;5050200;28;20052;-66
2022/10/14 07:27:36;;;;;;;57.25;19.83;;;12.40;99.90;;;;;;5050634;28;20052;-65
2022/10/14 07:30:02;;;;;;;48.65;19.13;;;12.40;99.90;;;;;;5043510;28;20119;-65
2022/10/14 07:32:28;;;;;;;49.72;18.08;;;12.50;99.90;;;;;;5049428;28;20025;-64
2022/10/14 07:34:53;;;;;;;52.60;20.10;;;12.50;99.90;;;;;;5031633;28;20075;-65
2022/10/14 07:37:19;;;;;;;47.75;19.00;;;12.50;99.90;;;;;;5030570;28;20391;-64
2022/10/14 07:39:45;;;;;;;50.85;19.73;;;12.50;99.90;;;;;;5043634;28;20127;-66
2022/10/14 07:42:10;;;;;;;54.03;20.65;;;12.60;99.90;;;;;;5048418;28;20391;-64
2022/10/14 07:44:38;;;;;;;45.53;19.60;;;12.60;99.90;;;;;;5050423;28;20105;-63
2022/10/14 07:47:04;;;;;;;49.75;20.33;;;12.60;99.90;;;;;;5022594;28;20049;-64
2022/10/14 07:49:30;;;;;;;52.53;20.58;;;12.70;99.90;;;;;;5044794;28;20357;-63
2022/10/14 07:51:56;;;;;;;52.20;21.30;;;12.70;99.90;;;;;;5049910;28;20082;-64
2022/10/14 07:54:24;;;;;;;55.08;20.58;;;12.70;99.90;;;;;;5044140;28;20045;-64
2022/10/14 07:56:50;;;;;;;55.67;21.02;;;12.80;99.90;;;;;;5046018;28;20044;-65
2022/10/14 07:59:19;;;;;;;53.67;20.83;;;12.80;99.90;;;;;;5049969;28;20071;-63
2022/10/14 08:01:49;;;;;;;52.03;20.42;;;12.80;99.90;;;;;;5035111;28;20053;-64
2022/10/14 08:04:15;;;;;;;52.78;21.58;;;12.80;99.90;;;;;;5033905;28;20041;-65
2022/10/14 08:06:42;;;;;;;57.35;21.80;;;12.80;99.90;;;;;;5040712;28;20044;-63
2022/10/14 08:09:09;;;;;;;54.63;21.60;;;12.80;99.90;;;;;;5029451;28;20121;-63
2022/10/14 08:11:35;;;;;;;57.22;21.70;;;12.80;99.90;;;;;;5036377;28;20712;-64
2022/10/14 08:14:00;;;;;;;55.78;21.88;;;12.90;99.90;;;;;;5029724;28;20033;-65
2022/10/14 08:16:32;;;;;;;54.00;22.05;;;12.90;99.90;;;;;;5036097;28;20499;-65
2022/10/14 08:19:01;;;;;;;57.30;21.85;;;13.00;99.90;;;;;;5034819;28;20458;-64
2022/10/14 08:21:27;;;;;;;58.72;22.40;;;13.00;99.90;;;;;;5041685;28;20052;-63
2022/10/14 08:23:53;;;;;;;57.65;23.15;;;13.00;99.90;;;;;;5047881;28;20041;-64
2022/10/14 08:26:19;;;;;;;59.22;22.50;;;13.00;99.90;;;;;;5037733;28;20041;-66
2022/10/14 08:28:45;;;;;;;59.17;23.00;;;13.00;99.90;;;;;;5021996;28;20052;-65
2022/10/14 08:31:11;;;;;;;61.10;22.48;;;13.00;99.90;;;;;;5031787;28;20088;-64
2022/10/14 08:33:36;;;;;;;65.35;24.80;;;13.10;99.90;;;;;;5042664;28;20499;-65
2022/10/14 08:36:02;;;;;;;66.85;23.48;;;13.20;99.90;;;;;;5043038;28;20037;-64
2022/10/14 08:38:28;;;;;;;68.85;24.70;;;13.20;99.90;;;;;;5052957;28;20029;-65
2022/10/14 08:41:24;;;;;;;74.13;25.27;;;13.20;99.90;;;;;;5045486;28;20507;-65
2022/10/14 08:44:21;;;;;;;73.20;26.60;;;13.20;99.90;;;;;;5049871;28;20479;-62
2022/10/14 08:46:55;;;;;;;72.88;25.08;;;13.30;99.90;;;;;;5039756;28;20049;-65
2022/10/14 08:49:23;;;;;;;65.45;24.65;;;13.30;99.90;;;;;;5034659;28;20073;-65
2022/10/14 08:51:57;;;;;;;68.13;24.75;;;13.30;99.90;;;;;;5052924;28;20037;-65
2022/10/14 08:54:37;;;;;;;69.15;25.40;;;13.40;99.90;;;;;;5037643;28;20033;-62
2022/10/14 08:57:04;;;;;;;73.55;25.08;;;13.40;99.90;;;;;;5050973;28;20158;-63
2022/10/14 08:59:36;;;;;;;69.03;24.98;;;13.50;99.90;;;;;;5047330;28;20554;-63
2022/10/14 09:02:13;;;;;;;73.40;25.45;;;13.50;99.90;;;;;;5030855;28;20036;-65
2022/10/14 09:04:38;;;;;;;75.10;24.50;;;13.50;99.90;;;;;;5046993;28;20564;-65
2022/10/14 09:07:04;;;;;;;69.72;24.30;;;13.50;99.90;;;;;;5049481;28;20041;-67
2022/10/14 09:09:42;;;;;;;74.55;24.80;;;13.50;99.90;;;;;;5044206;28;20037;-65
2022/10/14 09:12:16;;;;;;;65.70;22.58;;;13.60;99.90;;;;;;5050265;28;20098;-64
2022/10/14 09:14:46;;;;;;;73.22;24.17;;;13.50;99.90;;;;;;5053092;28;20123;-63
2022/10/14 09:17:16;;;;;;;72.15;25.02;;;13.50;99.90;;;;;;5049506;28;20033;-66
2022/10/14 09:19:52;;;;;;;78.65;24.70;;;13.60;99.90;;;;;;5047265;28;20036;-64
2022/10/14 09:22:18;;;;;;;69.75;23.50;;;13.60;99.90;;;;;;5051912;28;20047;-63
2022/10/14 09:24:47;;;;;;;66.45;23.27;;;13.60;99.90;;;;;;5053206;28;20040;-65
2022/10/14 09:27:20;;;;;;;77.32;25.05;;;13.60;99.90;;;;;;5024648;28;20080;-65
2022/10/14 09:29:57;;;;;;;75.70;24.83;;;13.60;99.90;;;;;;5048002;28;20037;-66
2022/10/14 09:32:29;;;;;;;88.38;26.08;;;13.60;99.90;;;;;;5045144;28;20040;-65
2022/10/14 09:34:55;;;;;;;76.40;23.30;;;13.70;99.90;;;;;;5045682;28;20044;-65
2022/10/14 09:37:26;;;;;;;82.07;24.55;;;13.60;99.90;;;;;;5044064;28;20083;-65
2022/10/14 09:40:13;;;;;;;89.07;24.77;;;13.60;99.90;;;;;;5034015;28;20087;-65
2022/10/14 09:43:13;;;;;;;84.57;24.90;;;13.60;99.90;;;;;;5002884;28;20049;-65
2022/10/14 09:45:48;;;;;;;87.18;25.92;;;13.60;99.90;;;;;;5044134;28;20065;-64
2022/10/14 09:48:19;;;;;;;85.68;25.50;;;13.60;99.90;;;;;;5052688;28;20511;-65
2022/10/14 09:50:52;;;;;;;84.57;25.23;;;13.60;99.90;;;;;;5043375;28;20398;-65
2022/10/14 09:53:32;;;;;;;82.50;24.80;;;13.60;99.90;;;;;;5045985;28;20036;-65
2022/10/14 09:56:00;;;;;;;92.97;25.17;;;13.60;99.90;;;;;;5052341;28;20037;-64
2022/10/14 09:58:34;;;;;;;80.05;24.63;;;13.60;99.90;;;;;;5049957;28;20033;-65
2022/10/14 10:01:01;;;;;;;72.10;24.40;;;13.60;99.90;;;;;;5043715;28;20505;-65
2022/10/14 10:03:32;;;;;;;72.22;23.85;;;13.60;99.90;;;;;;5049237;28;20167;-65
2022/10/14 10:06:05;;;;;;;68.00;23.85;;;13.60;99.90;;;;;;5048397;28;20581;-66
2022/10/14 10:08:31;;;;;;;82.47;24.33;;;13.70;99.90;;;;;;5042230;28;20385;-65
2022/10/14 10:11:09;;;;;;;83.25;24.10;;;13.70;99.90;;;;;;5042656;28;20465;-65
2022/10/14 10:13:45;;;;;;;67.32;23.58;;;13.70;99.90;;;;;;5047835;28;20480;-66
2022/10/14 10:16:35;;;;;;;70.35;23.50;;;13.60;99.90;;;;;;5039979;28;20056;-64
2022/10/14 10:19:27;;;;;;;73.55;22.85;;;13.70;99.90;;;;;;5038600;28;20490;-64
2022/10/14 10:21:53;;;;;;;79.45;24.35;;;13.70;99.90;;;;;;5030950;28;20151;-64
2022/10/14 10:24:21;;;;;;;71.45;22.33;;;13.70;99.90;;;;;;5048583;28;20076;-64
2022/10/14 10:26:48;;;;;;;73.85;23.35;;;13.70;99.90;;;;;;5048623;28;20065;-64
2022/10/14 10:29:30;;;;;;;62.05;22.02;;;13.70;99.90;;;;;;5049025;28;20048;-64
2022/10/14 10:32:13;;;;;;;68.28;23.08;;;13.70;99.90;;;;;;5041048;28;20041;-65
2022/10/14 10:35:10;;;;;;;69.22;23.83;;;13.80;99.90;;;;;;5042876;28;20047;-65
2022/10/14 10:38:08;;;;;;;70.13;24.42;;;13.80;99.90;;;;;;5045897;28;20148;-64
2022/10/14 10:40:46;;;;;;;73.88;24.98;;;13.80;99.90;;;;;;5045727;28;20088;-64
2022/10/14 10:43:30;;;;;;;71.63;24.42;;;13.80;99.90;;;;;;5041163;28;20044;-63
2022/10/14 10:46:44;;;;;;;74.15;25.40;;;13.80;99.90;;;;;;5046219;28;20590;-64
2022/10/14 10:49:24;;;;;;;79.38;25.02;;;13.80;99.90;;;;;;5073809;22;20515;-63
2022/10/14 10:52:07;;;;;;;78.83;25.43;;;13.80;99.90;;;;;;5044422;28;20490;-63
2022/10/14 10:55:01;;;;;;;75.65;26.00;;;13.80;99.90;;;;;;5046021;28;20052;-63
2022/10/14 10:58:07;;;;;;;76.20;25.95;;;13.90;99.90;;;;;;5035105;28;20037;-63
2022/10/14 11:00:52;;;;;;;75.72;25.60;;;13.90;99.90;;;;;;5022303;28;20179;-62
2022/10/14 11:03:49;;;;;;;75.63;26.20;;;14.00;99.90;;;;;;5026975;28;20044;-62
2022/10/14 11:13:03;;;;;;;70.18;26.60;;;14.20;99.90;;;;;;5002013;28;20407;-63
2022/10/14 11:16:01;;;;;;;80.30;27.67;;;14.30;99.90;;;;;;5021247;28;20041;-63
2022/10/14 11:18:48;;;;;;;71.07;26.60;;;14.40;99.90;;;;;;4979989;28;20518;-64
2022/10/14 11:21:20;;;;;;;81.45;28.52;;;14.40;99.90;;;;;;5027232;28;20053;-63
2022/10/14 11:24:14;;;;;;;73.28;27.25;;;14.50;99.90;;;;;;5024393;28;20422;-63
2022/10/14 11:27:07;;;;;;;66.15;26.77;;;14.60;99.90;;;;;;5026825;28;20098;-63
2022/10/14 11:29:34;;;;;;;74.93;28.10;;;14.80;99.90;;;;;;5016377;28;20037;-62
2022/10/14 11:32:08;;;;;;;76.65;28.48;;;14.90;99.90;;;;;;5011189;28;20089;-60
2022/10/14 11:34:49;;;;;;;73.80;28.80;;;15.10;99.90;;;;;;5018178;28;20455;-61
2022/10/14 11:37:47;;;;;;;69.82;27.92;;;15.20;99.90;;;;;;5016103;28;20037;-64
2022/10/14 11:40:23;;;;;;;63.30;28.88;;;15.30;99.90;;;;;;5018893;28;20029;-63
2022/10/14 11:43:17;;;;;;;63.38;26.88;;;15.40;99.90;;;;;;5020136;28;20038;-64
2022/10/14 11:45:55;;;;;;;61.88;27.75;;;15.50;99.90;;;;;;5013448;28;20042;-61
2022/10/14 11:48:37;;;;;;;54.78;25.42;;;15.50;99.90;;;;;;5019102;28;20048;-62
2022/10/14 11:51:10;;;;;;;54.95;26.15;;;15.50;99.90;;;;;;5003536;28;20144;-64
2022/10/14 11:53:45;;;;;;;58.65;27.33;;;15.50;99.90;;;;;;5018646;28;20125;-64
2022/10/14 11:56:16;;;;;;;45.03;23.33;;;15.50;99.90;;;;;;5014283;28;20124;-62
2022/10/14 11:58:46;;;;;;;51.10;23.55;;;15.40;99.90;;;;;;5021611;28;20034;-64
2022/10/14 12:01:15;;;;;;;48.85;24.02;;;15.40;99.90;;;;;;5027074;28;20511;-66
2022/10/14 12:03:58;;;;;;;46.92;23.80;;;15.40;99.90;;;;;;5021321;28;20041;-64
2022/10/14 12:06:33;;;;;;;40.13;22.02;;;15.40;99.90;;;;;;5016910;28;20939;-64
2022/10/14 12:09:12;;;;;;;42.58;22.15;;;15.40;99.90;;;;;;5019121;28;20475;-65
2022/10/14 12:11:48;;;;;;;38.10;20.25;;;15.50;99.90;;;;;;5023658;28;20091;-64
2022/10/14 12:14:31;;;;;;;36.42;20.30;;;15.50;99.90;;;;;;5018763;28;20037;-63
2022/10/14 12:16:58;;;;;;;33.33;18.15;;;15.50;99.90;;;;;;5004166;28;20030;-65
2022/10/14 12:19:26;;;;;;;32.00;17.63;;;15.50;99.90;;;;;;5000392;28;20048;-65
2022/10/14 12:22:01;;;;;;;31.98;17.60;;;15.50;99.90;;;;;;5015633;28;20064;-65
2022/10/14 12:24:37;;;;;;;26.17;16.63;;;15.50;99.90;;;;;;5022241;28;20441;-65
2022/10/14 12:27:08;;;;;;;27.15;16.60;;;15.60;99.90;;;;;;5026227;28;20048;-65
2022/10/14 12:29:37;;;;;;;27.65;17.45;;;15.60;99.90;;;;;;5026074;28;20412;-64
2022/10/14 12:32:02;;;;;;;28.42;17.92;;;15.70;99.90;;;;;;5026932;28;20045;-64
2022/10/14 12:34:30;;;;;;;27.63;16.98;;;15.70;99.90;;;;;;5031242;28;20082;-64
2022/10/14 12:36:56;;;;;;;28.83;16.80;;;15.70;99.90;;;;;;5012930;28;20447;-62
2022/10/14 12:39:33;;;;;;;24.90;16.00;;;15.70;99.90;;;;;;5009192;28;20582;-64
2022/10/14 12:42:10;;;;;;;28.80;17.40;;;15.70;99.90;;;;;;5029525;28;20380;-64
2022/10/14 12:44:42;;;;;;;27.35;16.27;;;15.70;99.90;;;;;;5031093;28;20054;-64
2022/10/14 12:47:17;;;;;;;28.90;17.70;;;15.70;99.90;;;;;;5018649;28;20491;-65